createdAt,value
2017-02-16T00:01:04.444Z,7.87
2017-02-16T00:01:46.099Z,7.89
2017-02-16T00:02:27.789Z,7.87
2017-02-16T00:04:06.745Z,7.83
2017-02-16T00:04:48.219Z,7.85
2017-02-16T00:05:29.762Z,7.86
2017-02-16T00:06:11.250Z,7.86
2017-02-16T00:06:52.684Z,7.82
2017-02-16T00:08:52.637Z,7.85
2017-02-16T00:09:34.115Z,7.87
2017-02-16T00:10:15.625Z,7.82
2017-02-16T00:10:57.169Z,7.85
2017-02-16T00:11:38.646Z,7.8
2017-02-16T00:12:20.249Z,7.79
2017-02-16T00:13:01.939Z,7.83
2017-02-16T00:13:43.400Z,7.8
2017-02-16T00:14:24.910Z,7.77
2017-02-16T00:15:06.411Z,7.85
2017-02-16T00:15:48.070Z,7.77
2017-02-16T00:16:29.869Z,7.83
2017-02-16T00:17:11.367Z,7.82
2017-02-16T00:17:52.913Z,7.8
2017-02-16T00:18:34.336Z,7.82
2017-02-16T00:20:13.377Z,7.85
2017-02-16T00:20:54.995Z,7.87
2017-02-16T00:21:36.443Z,7.79
2017-02-16T00:22:18.063Z,7.79
2017-02-16T00:22:59.550Z,7.8
2017-02-16T00:23:41.111Z,7.82
2017-02-16T00:25:30.466Z,7.74
2017-02-16T00:27:19.815Z,7.71
2017-02-16T00:28:01.346Z,7.75
2017-02-16T00:28:42.908Z,7.72
2017-02-16T00:29:24.466Z,7.71
2017-02-16T00:30:05.922Z,7.67
2017-02-16T00:30:47.516Z,7.71
2017-02-16T00:31:29.082Z,7.69
2017-02-16T00:32:10.656Z,7.68
2017-02-16T00:32:52.044Z,7.74
2017-02-16T00:35:07.297Z,7.5
2017-02-16T00:35:48.739Z,7.52
2017-02-16T00:37:43.279Z,7.46
2017-02-16T00:38:24.826Z,7.49
2017-02-16T00:39:06.253Z,7.5
2017-02-16T00:39:47.868Z,7.49
2017-02-16T00:40:29.368Z,7.39
2017-02-16T00:41:10.916Z,7.3
2017-02-16T00:41:52.302Z,7.43
2017-02-16T00:43:46.931Z,7.46
2017-02-16T00:44:28.627Z,7.4
2017-02-16T00:45:10.217Z,7.42
2017-02-16T00:45:51.867Z,7.42
2017-02-16T00:46:33.451Z,7.43
2017-02-16T00:47:15.045Z,7.24
2017-02-16T00:47:56.742Z,7.3
2017-02-16T00:48:38.197Z,7.3
2017-02-16T00:49:19.803Z,7.27
2017-02-16T00:50:01.248Z,7.3
2017-02-16T00:50:42.714Z,7.35
2017-02-16T00:51:23.962Z,7.32
2017-02-16T00:53:02.918Z,7.32
2017-02-16T00:53:44.597Z,7.17
2017-02-16T00:54:26.105Z,7.27
2017-02-16T00:55:07.841Z,7.21
2017-02-16T00:55:49.433Z,7.25
2017-02-16T00:57:28.403Z,7.2
2017-02-16T00:58:09.935Z,7.27
2017-02-16T00:58:51.055Z,7.23
2017-02-16T00:59:32.489Z,7.24
2017-02-16T01:00:13.916Z,7.21
2017-02-16T01:00:54.636Z,7.23
2017-02-16T01:01:36.235Z,7.24
2017-02-16T01:02:17.929Z,7.27
2017-02-16T01:02:59.330Z,7.24
2017-02-16T01:04:59.066Z,7.23
2017-02-16T01:05:40.652Z,7.25
2017-02-16T01:06:21.993Z,7.21
2017-02-16T01:07:03.550Z,7.17
2017-02-16T01:07:44.840Z,7.25
2017-02-16T01:08:26.652Z,7.25
2017-02-16T01:10:41.944Z,7.2
2017-02-16T01:11:23.644Z,7.13
2017-02-16T01:12:05.288Z,7.16
2017-02-16T01:12:47.006Z,7.16
2017-02-16T01:13:28.468Z,7.17
2017-02-16T01:14:10.220Z,7.23
2017-02-16T01:16:04.749Z,7.16
2017-02-16T01:16:46.244Z,7.17
2017-02-16T01:17:27.856Z,7.21
2017-02-16T01:18:09.399Z,7.25
2017-02-16T01:20:09.251Z,7.16
2017-02-16T01:20:50.560Z,7.16
2017-02-16T01:21:32.139Z,7.17
2017-02-16T01:22:13.452Z,7.15
2017-02-16T01:22:55.073Z,7.16
2017-02-16T01:23:36.594Z,7.06
2017-02-16T01:24:18.191Z,7.12
2017-02-16T01:24:59.895Z,7.09
2017-02-16T01:25:41.417Z,7.07
2017-02-16T01:26:22.995Z,7.07
2017-02-16T01:27:04.500Z,6.99
2017-02-16T01:27:45.970Z,6.98
2017-02-16T01:28:27.476Z,7.02
2017-02-16T01:29:08.876Z,6.95
2017-02-16T01:31:03.482Z,6.95
2017-02-16T01:31:44.971Z,6.81
2017-02-16T01:32:26.661Z,6.87
2017-02-16T01:33:08.249Z,6.74
2017-02-16T01:33:49.868Z,6.77
2017-02-16T01:34:31.659Z,6.89
2017-02-16T01:35:13.131Z,6.91
2017-02-16T01:35:54.570Z,6.81
2017-02-16T01:36:36.097Z,6.8
2017-02-16T01:37:17.651Z,6.77
2017-02-16T01:37:59.404Z,6.71
2017-02-16T01:38:40.873Z,6.79
2017-02-16T01:39:22.632Z,6.71
2017-02-16T01:40:04.258Z,6.73
2017-02-16T01:40:45.736Z,6.77
2017-02-16T01:41:27.185Z,6.73
2017-02-16T01:42:08.733Z,6.69
2017-02-16T01:42:50.321Z,6.7
2017-02-16T01:43:31.896Z,6.71
2017-02-16T01:45:31.771Z,6.66
2017-02-16T01:46:13.308Z,6.59
2017-02-16T01:46:54.546Z,6.74
2017-02-16T01:47:35.893Z,6.69
2017-02-16T01:48:17.321Z,6.69
2017-02-16T01:50:32.475Z,6.71
2017-02-16T01:51:14.016Z,6.67
2017-02-16T01:51:55.272Z,6.59
2017-02-16T01:52:36.911Z,6.61
2017-02-16T01:53:18.381Z,6.66
2017-02-16T01:55:12.916Z,6.69
2017-02-16T01:55:54.701Z,6.7
2017-02-16T01:56:36.278Z,6.71
2017-02-16T01:57:17.832Z,6.76
2017-02-16T01:57:59.378Z,6.8
2017-02-16T01:58:40.960Z,6.76
2017-02-16T01:59:22.426Z,6.85
2017-02-16T02:00:03.798Z,6.89
2017-02-16T02:00:44.405Z,6.81
2017-02-16T02:01:24.941Z,6.94
2017-02-16T02:02:05.479Z,6.84
2017-02-16T02:02:46.010Z,6.77
2017-02-16T02:03:26.541Z,6.84
2017-02-16T02:04:07.061Z,6.8
2017-02-16T02:04:47.596Z,6.94
2017-02-16T02:05:28.131Z,6.95
2017-02-16T02:06:08.663Z,6.94
2017-02-16T02:06:49.192Z,6.94
2017-02-16T02:07:29.719Z,6.97
2017-02-16T02:08:10.248Z,6.97
2017-02-16T02:08:50.783Z,6.97
2017-02-16T02:09:31.317Z,7.02
2017-02-16T02:10:11.849Z,6.95
2017-02-16T02:10:52.379Z,7.03
2017-02-16T02:11:32.914Z,7.06
2017-02-16T02:12:13.452Z,6.98
2017-02-16T02:12:54.015Z,7.07
2017-02-16T02:13:34.518Z,7.06
2017-02-16T02:14:15.058Z,7.06
2017-02-16T02:14:55.593Z,7.06
2017-02-16T02:15:36.125Z,7.03
2017-02-16T02:16:16.663Z,7.06
2017-02-16T02:16:57.198Z,7.1
2017-02-16T02:17:37.732Z,7.02
2017-02-16T02:18:18.292Z,7.1
2017-02-16T02:18:58.799Z,7.07
2017-02-16T02:19:39.337Z,7.06
2017-02-16T02:20:19.874Z,7.02
2017-02-16T02:21:00.404Z,7.06
2017-02-16T02:21:41.000Z,7.02
2017-02-16T02:22:21.528Z,7.07
2017-02-16T02:23:02.059Z,7.03
2017-02-16T02:23:42.597Z,7.02
2017-02-16T02:24:23.133Z,7.09
2017-02-16T02:25:03.681Z,7.05
2017-02-16T02:25:44.190Z,7.07
2017-02-16T02:26:24.721Z,6.99
2017-02-16T02:27:05.256Z,6.99
2017-02-16T02:27:45.790Z,6.95
2017-02-16T02:28:26.327Z,7.02
2017-02-16T02:29:06.866Z,7.02
2017-02-16T02:29:47.393Z,6.99
2017-02-16T02:30:27.925Z,6.91
2017-02-16T02:31:08.462Z,6.92
2017-02-16T02:31:49.001Z,6.89
2017-02-16T02:32:29.536Z,6.87
2017-02-16T02:33:10.058Z,6.87
2017-02-16T02:33:50.584Z,6.85
2017-02-16T02:34:31.111Z,6.85
2017-02-16T02:35:11.644Z,6.84
2017-02-16T02:35:52.227Z,6.95
2017-02-16T02:36:32.759Z,6.89
2017-02-16T02:37:13.295Z,6.89
2017-02-16T02:37:53.833Z,6.79
2017-02-16T02:38:34.371Z,6.79
2017-02-16T02:39:14.902Z,6.76
2017-02-16T02:39:55.439Z,6.8
2017-02-16T02:40:35.969Z,6.76
2017-02-16T02:41:16.510Z,6.66
2017-02-16T02:41:57.027Z,6.7
2017-02-16T02:42:37.562Z,6.73
2017-02-16T02:43:18.093Z,6.71
2017-02-16T02:43:58.624Z,6.64
2017-02-16T02:44:39.161Z,6.64
2017-02-16T02:45:19.692Z,6.62
2017-02-16T02:46:00.227Z,6.55
2017-02-16T02:46:40.757Z,6.61
2017-02-16T02:47:21.295Z,6.54
2017-02-16T02:48:01.821Z,6.41
2017-02-16T02:48:42.351Z,6.4
2017-02-16T02:49:22.892Z,6.41
2017-02-16T02:50:03.425Z,6.37
2017-02-16T02:50:43.959Z,6.27
2017-02-16T02:51:24.495Z,6.33
2017-02-16T02:52:05.022Z,6.28
2017-02-16T02:52:45.560Z,6.31
2017-02-16T02:53:26.094Z,6.28
2017-02-16T02:54:06.626Z,6.33
2017-02-16T02:54:47.155Z,6.28
2017-02-16T02:55:27.693Z,6.27
2017-02-16T02:56:08.264Z,6.18
2017-02-16T02:56:48.797Z,6.25
2017-02-16T02:57:29.329Z,6.27
2017-02-16T02:58:09.858Z,6.28
2017-02-16T02:58:50.399Z,6.21
2017-02-16T02:59:30.929Z,6.12
2017-02-16T03:00:11.456Z,6.25
2017-02-16T03:00:51.985Z,6.28
2017-02-16T03:01:32.515Z,6.25
2017-02-16T03:02:13.049Z,6.3
2017-02-16T03:02:53.582Z,6.31
2017-02-16T03:03:34.112Z,6.25
2017-02-16T03:04:14.652Z,6.28
2017-02-16T03:04:55.182Z,6.21
2017-02-16T03:05:35.720Z,6.25
2017-02-16T03:06:16.253Z,6.3
2017-02-16T03:06:56.784Z,6.31
2017-02-16T03:07:37.314Z,6.28
2017-02-16T03:08:17.854Z,6.3
2017-02-16T03:08:58.377Z,6.27
2017-02-16T03:09:39.003Z,6.19
2017-02-16T03:10:19.483Z,6.25
2017-02-16T03:11:00.016Z,6.3
2017-02-16T03:11:40.547Z,6.31
2017-02-16T03:12:21.085Z,6.33
2017-02-16T03:13:01.613Z,6.27
2017-02-16T03:13:42.157Z,6.28
2017-02-16T03:14:22.689Z,6.28
2017-02-16T03:15:03.223Z,6.33
2017-02-16T03:15:43.752Z,6.36
2017-02-16T03:16:24.284Z,6.28
2017-02-16T03:17:04.813Z,6.27
2017-02-16T03:17:45.346Z,6.28
2017-02-16T03:18:25.875Z,6.3
2017-02-16T03:19:06.413Z,6.31
2017-02-16T03:19:46.944Z,6.33
2017-02-16T03:20:27.471Z,6.33
2017-02-16T03:21:08.007Z,6.4
2017-02-16T03:21:48.538Z,6.41
2017-02-16T03:22:29.068Z,6.4
2017-02-16T03:23:09.595Z,6.41
2017-02-16T03:23:50.125Z,6.46
2017-02-16T03:24:30.666Z,6.33
2017-02-16T03:25:11.187Z,6.46
2017-02-16T03:25:51.718Z,6.41
2017-02-16T03:26:32.248Z,6.43
2017-02-16T03:27:12.768Z,6.44
2017-02-16T03:27:53.299Z,6.54
2017-02-16T03:28:33.833Z,6.55
2017-02-16T03:29:14.367Z,6.49
2017-02-16T03:29:54.899Z,6.46
2017-02-16T03:30:35.429Z,6.61
2017-02-16T03:31:15.956Z,6.48
2017-02-16T03:31:56.493Z,6.54
2017-02-16T03:32:37.024Z,6.56
2017-02-16T03:33:17.561Z,6.54
2017-02-16T03:33:58.088Z,6.54
2017-02-16T03:34:38.621Z,6.61
2017-02-16T03:35:19.154Z,6.55
2017-02-16T03:35:59.694Z,6.61
2017-02-16T03:36:40.229Z,6.64
2017-02-16T03:37:20.766Z,6.66
2017-02-16T03:38:01.295Z,6.62
2017-02-16T03:38:41.828Z,6.61
2017-02-16T03:39:22.362Z,6.69
2017-02-16T03:40:02.896Z,6.62
2017-02-16T03:40:43.429Z,6.71
2017-02-16T03:41:23.963Z,6.62
2017-02-16T03:42:04.491Z,6.7
2017-02-16T03:42:45.024Z,6.7
2017-02-16T03:43:25.560Z,6.69
2017-02-16T03:44:06.126Z,6.7
2017-02-16T03:44:46.664Z,6.73
2017-02-16T03:45:27.200Z,6.7
2017-02-16T03:46:07.732Z,6.62
2017-02-16T03:46:48.260Z,6.66
2017-02-16T03:47:28.790Z,6.7
2017-02-16T03:48:09.329Z,6.7
2017-02-16T03:48:49.865Z,6.67
2017-02-16T03:49:30.404Z,6.67
2017-02-16T03:50:10.938Z,6.69
2017-02-16T03:50:51.470Z,6.74
2017-02-16T03:51:32.000Z,6.73
2017-02-16T03:52:12.539Z,6.77
2017-02-16T03:52:53.071Z,6.77
2017-02-16T03:53:33.606Z,6.73
2017-02-16T03:54:14.144Z,6.74
2017-02-16T03:54:54.685Z,6.71
2017-02-16T03:55:35.219Z,6.71
2017-02-16T03:56:15.752Z,6.69
2017-02-16T03:56:56.290Z,6.62
2017-02-16T03:57:36.823Z,6.69
2017-02-16T03:58:17.371Z,6.62
2017-02-16T03:58:57.907Z,6.69
2017-02-16T03:59:38.447Z,6.59
2017-02-16T04:00:18.975Z,6.64
2017-02-16T04:00:59.505Z,6.66
2017-02-16T04:01:40.035Z,6.59
2017-02-16T04:02:20.577Z,6.61
2017-02-16T04:03:01.135Z,6.58
2017-02-16T04:03:41.643Z,6.61
2017-02-16T04:04:22.173Z,6.61
2017-02-16T04:05:02.703Z,6.64
2017-02-16T04:05:43.237Z,6.52
2017-02-16T04:06:23.768Z,6.54
2017-02-16T04:07:04.291Z,6.51
2017-02-16T04:07:44.826Z,6.46
2017-02-16T04:08:25.353Z,6.38
2017-02-16T04:09:05.892Z,6.41
2017-02-16T04:09:46.426Z,6.36
2017-02-16T04:10:26.959Z,6.4
2017-02-16T04:11:07.492Z,6.34
2017-02-16T04:11:48.025Z,6.28
2017-02-16T04:12:28.556Z,6.25
2017-02-16T04:13:09.083Z,6.27
2017-02-16T04:13:49.617Z,6.19
2017-02-16T04:14:30.150Z,6.22
2017-02-16T04:15:10.686Z,6.28
2017-02-16T04:15:51.215Z,6.21
2017-02-16T04:16:31.753Z,6.27
2017-02-16T04:17:12.286Z,6.27
2017-02-16T04:17:52.823Z,6.18
2017-02-16T04:18:33.355Z,6.14
2017-02-16T04:19:13.889Z,6.19
2017-02-16T04:19:54.425Z,6.21
2017-02-16T04:20:34.958Z,6.14
2017-02-16T04:21:15.501Z,6.15
2017-02-16T04:21:56.029Z,6.17
2017-02-16T04:22:36.564Z,6.22
2017-02-16T04:23:17.104Z,6.27
2017-02-16T04:23:57.640Z,6.22
2017-02-16T04:24:38.170Z,6.21
2017-02-16T04:25:18.705Z,6.19
2017-02-16T04:25:59.233Z,6.15
2017-02-16T04:26:39.768Z,6.19
2017-02-16T04:27:20.307Z,6.11
2017-02-16T04:28:00.828Z,6.14
2017-02-16T04:28:41.359Z,6.21
2017-02-16T04:29:21.891Z,6.21
2017-02-16T04:30:02.431Z,6.17
2017-02-16T04:30:42.963Z,6.21
2017-02-16T04:31:23.494Z,6.17
2017-02-16T04:32:04.030Z,6.17
2017-02-16T04:32:44.544Z,6.25
2017-02-16T04:33:25.082Z,6.22
2017-02-16T04:34:05.613Z,6.15
2017-02-16T04:34:46.133Z,6.27
2017-02-16T04:35:26.674Z,6.22
2017-02-16T04:36:07.216Z,6.22
2017-02-16T04:36:47.737Z,6.18
2017-02-16T04:37:28.267Z,6.11
2017-02-16T04:38:08.806Z,6.31
2017-02-16T04:38:49.340Z,6.18
2017-02-16T04:39:29.872Z,6.22
2017-02-16T04:40:10.401Z,6.21
2017-02-16T04:40:50.968Z,6.18
2017-02-16T04:41:31.516Z,6.3
2017-02-16T04:42:12.053Z,6.28
2017-02-16T04:42:52.590Z,6.3
2017-02-16T04:43:33.129Z,6.28
2017-02-16T04:44:13.669Z,6.3
2017-02-16T04:44:54.207Z,6.22
2017-02-16T04:45:34.746Z,6.3
2017-02-16T04:46:15.270Z,6.18
2017-02-16T04:46:55.809Z,6.21
2017-02-16T04:47:36.343Z,6.17
2017-02-16T04:48:16.881Z,6.18
2017-02-16T04:48:57.416Z,6.27
2017-02-16T04:49:37.949Z,6.25
2017-02-16T04:50:18.486Z,6.15
2017-02-16T04:50:59.012Z,6.3
2017-02-16T04:51:39.547Z,6.31
2017-02-16T04:52:20.077Z,6.28
2017-02-16T04:53:00.610Z,6.3
2017-02-16T04:53:41.137Z,6.22
2017-02-16T04:54:21.665Z,6.3
2017-02-16T04:55:02.209Z,6.3
2017-02-16T04:55:42.738Z,6.3
2017-02-16T04:56:23.248Z,6.22
2017-02-16T04:57:03.798Z,6.3
2017-02-16T04:57:44.324Z,6.21
2017-02-16T04:58:24.855Z,6.21
2017-02-16T04:59:05.388Z,6.28
2017-02-16T04:59:45.924Z,6.21
2017-02-16T05:00:26.457Z,6.25
2017-02-16T05:01:06.987Z,6.25
2017-02-16T05:01:47.531Z,6.21
2017-02-16T05:02:28.063Z,6.09
2017-02-16T05:03:08.591Z,6.25
2017-02-16T05:03:49.137Z,6.21
2017-02-16T05:04:29.672Z,6.18
2017-02-16T05:05:10.200Z,6.15
2017-02-16T05:05:50.733Z,6.25
2017-02-16T05:06:31.270Z,6.14
2017-02-16T05:07:11.803Z,6.25
2017-02-16T05:07:52.348Z,6.08
2017-02-16T05:08:32.887Z,6.19
2017-02-16T05:09:13.443Z,6.22
2017-02-16T05:09:53.977Z,6.17
2017-02-16T05:10:34.506Z,6.18
2017-02-16T05:11:15.039Z,6.25
2017-02-16T05:11:55.567Z,6.19
2017-02-16T05:12:36.093Z,6.15
2017-02-16T05:13:16.649Z,6.17
2017-02-16T05:13:57.184Z,6.15
2017-02-16T05:14:37.724Z,6.18
2017-02-16T05:15:18.258Z,6.21
2017-02-16T05:15:58.830Z,6.21
2017-02-16T05:16:39.362Z,6.17
2017-02-16T05:17:19.898Z,6.17
2017-02-16T05:18:00.477Z,6.15
2017-02-16T05:18:41.007Z,6.18
2017-02-16T05:19:21.546Z,6.18
2017-02-16T05:20:02.074Z,6.17
2017-02-16T05:20:42.607Z,6.15
2017-02-16T05:21:23.140Z,6.15
2017-02-16T05:22:03.657Z,6.17
2017-02-16T05:22:44.204Z,6.19
2017-02-16T05:23:24.743Z,6.18
2017-02-16T05:24:05.275Z,6.15
2017-02-16T05:24:45.813Z,6.15
2017-02-16T05:25:26.353Z,6.15
2017-02-16T05:26:06.948Z,6.17
2017-02-16T05:26:47.509Z,6.21
2017-02-16T05:27:28.019Z,6.17
2017-02-16T05:28:08.557Z,6.11
2017-02-16T05:28:49.093Z,6.15
2017-02-16T05:29:29.613Z,6.08
2017-02-16T05:30:10.144Z,6.12
2017-02-16T05:30:50.680Z,6.08
2017-02-16T05:31:31.211Z,6.18
2017-02-16T05:32:11.753Z,6.11
2017-02-16T05:32:52.820Z,6.11
2017-02-16T05:33:33.332Z,6.18
2017-02-16T05:34:13.865Z,6.14
2017-02-16T05:34:54.401Z,6.12
2017-02-16T05:35:34.933Z,6.15
2017-02-16T05:36:15.473Z,6.25
2017-02-16T05:36:56.024Z,6.19
2017-02-16T05:37:36.557Z,6.19
2017-02-16T05:38:17.100Z,6.17
2017-02-16T05:38:57.630Z,6.15
2017-02-16T05:39:38.164Z,6.17
2017-02-16T05:40:18.699Z,6.14
2017-02-16T05:40:59.237Z,6.14
2017-02-16T05:41:39.771Z,6.11
2017-02-16T05:42:20.299Z,6.12
2017-02-16T05:43:00.830Z,6.08
2017-02-16T05:43:41.350Z,6.12
2017-02-16T05:44:21.884Z,5.99
2017-02-16T05:45:02.420Z,5.96
2017-02-16T05:45:42.947Z,6.03
2017-02-16T05:46:23.482Z,5.99
2017-02-16T05:47:04.042Z,6.01
2017-02-16T05:47:44.524Z,5.96
2017-02-16T05:48:25.038Z,6
2017-02-16T05:49:05.601Z,6
2017-02-16T05:49:46.115Z,6
2017-02-16T05:50:26.644Z,5.96
2017-02-16T05:51:07.176Z,6.06
2017-02-16T05:51:47.713Z,6.01
2017-02-16T05:52:28.247Z,5.97
2017-02-16T05:53:08.780Z,6
2017-02-16T05:53:49.320Z,5.97
2017-02-16T05:54:29.858Z,5.96
2017-02-16T05:55:10.395Z,6
2017-02-16T05:55:50.923Z,5.97
2017-02-16T05:56:31.447Z,5.97
2017-02-16T05:57:11.989Z,5.94
2017-02-16T05:57:52.517Z,5.94
2017-02-16T05:58:33.064Z,5.93
2017-02-16T05:59:13.602Z,6
2017-02-16T05:59:54.140Z,6.01
2017-02-16T06:00:34.673Z,5.94
2017-02-16T06:01:15.201Z,5.99
2017-02-16T06:01:55.739Z,6
2017-02-16T06:02:36.280Z,6
2017-02-16T06:03:16.815Z,6.01
2017-02-16T06:03:57.353Z,6
2017-02-16T06:04:37.901Z,6.04
2017-02-16T06:05:18.437Z,6.04
2017-02-16T06:05:58.959Z,5.96
2017-02-16T06:06:39.492Z,6.03
2017-02-16T06:07:20.031Z,6.09
2017-02-16T06:08:00.559Z,5.99
2017-02-16T06:08:41.098Z,5.99
2017-02-16T06:09:21.629Z,5.97
2017-02-16T06:10:02.159Z,6.08
2017-02-16T06:10:42.695Z,6.01
2017-02-16T06:11:23.231Z,6.08
2017-02-16T06:12:03.775Z,6
2017-02-16T06:12:44.307Z,5.99
2017-02-16T06:13:24.832Z,6.01
2017-02-16T06:14:05.366Z,6.01
2017-02-16T06:14:45.905Z,5.97
2017-02-16T06:15:26.433Z,5.97
2017-02-16T06:16:06.982Z,5.93
2017-02-16T06:16:47.505Z,5.99
2017-02-16T06:17:28.038Z,6.01
2017-02-16T06:18:08.564Z,6.09
2017-02-16T06:18:49.096Z,6.03
2017-02-16T06:19:29.632Z,6
2017-02-16T06:20:10.171Z,6.01
2017-02-16T06:20:50.713Z,6.12
2017-02-16T06:21:31.224Z,6.06
2017-02-16T06:22:11.759Z,6.03
2017-02-16T06:22:52.291Z,6.14
2017-02-16T06:23:32.840Z,6.11
2017-02-16T06:24:13.363Z,6.12
2017-02-16T06:24:53.898Z,6.19
2017-02-16T06:25:34.426Z,6.19
2017-02-16T06:26:14.960Z,6.17
2017-02-16T06:26:55.493Z,6.15
2017-02-16T06:27:36.032Z,6.17
2017-02-16T06:28:16.570Z,6.15
2017-02-16T06:28:57.110Z,6.15
2017-02-16T06:29:37.646Z,6.28
2017-02-16T06:30:18.178Z,6.28
2017-02-16T06:30:58.713Z,6.17
2017-02-16T06:31:39.249Z,6.21
2017-02-16T06:32:19.788Z,6.22
2017-02-16T06:33:00.316Z,6.21
2017-02-16T06:33:40.932Z,6.18
2017-02-16T06:34:21.463Z,6.25
2017-02-16T06:35:01.991Z,6.25
2017-02-16T06:35:42.527Z,6.3
2017-02-16T06:36:23.069Z,6.22
2017-02-16T06:37:03.605Z,6.27
2017-02-16T06:37:44.138Z,6.25
2017-02-16T06:38:24.684Z,6.25
2017-02-16T06:39:05.221Z,6.27
2017-02-16T06:39:45.757Z,6.27
2017-02-16T06:40:26.317Z,6.31
2017-02-16T06:41:06.857Z,6.25
2017-02-16T06:41:47.397Z,6.21
2017-02-16T06:42:27.959Z,6.19
2017-02-16T06:43:08.505Z,6.28
2017-02-16T06:43:49.033Z,6.31
2017-02-16T06:44:29.563Z,6.22
2017-02-16T06:45:10.098Z,6.25
2017-02-16T06:45:50.637Z,6.21
2017-02-16T06:46:31.176Z,6.27
2017-02-16T06:47:11.715Z,6.27
2017-02-16T06:47:52.253Z,6.25
2017-02-16T06:48:32.785Z,6.28
2017-02-16T06:49:13.322Z,6.34
2017-02-16T06:49:53.850Z,6.21
2017-02-16T06:50:34.387Z,6.21
2017-02-16T06:51:14.912Z,6.3
2017-02-16T06:51:55.441Z,6.27
2017-02-16T06:52:35.969Z,6.28
2017-02-16T06:53:16.506Z,6.28
2017-02-16T06:53:57.039Z,6.36
2017-02-16T06:54:37.577Z,6.28
2017-02-16T06:55:18.101Z,6.25
2017-02-16T06:55:58.637Z,6.3
2017-02-16T06:56:39.170Z,6.28
2017-02-16T06:57:19.698Z,6.3
2017-02-16T06:58:00.231Z,6.28
2017-02-16T06:58:40.760Z,6.3
2017-02-16T06:59:21.298Z,6.36
2017-02-16T07:00:01.844Z,6.28
2017-02-16T07:00:42.391Z,6.3
2017-02-16T07:01:22.916Z,6.31
2017-02-16T07:02:03.454Z,6.33
2017-02-16T07:02:43.972Z,6.3
2017-02-16T07:03:24.511Z,6.28
2017-02-16T07:04:05.046Z,6.33
2017-02-16T07:04:45.580Z,6.3
2017-02-16T07:05:26.132Z,6.28
2017-02-16T07:06:06.648Z,6.3
2017-02-16T07:06:47.189Z,6.3
2017-02-16T07:07:27.723Z,6.3
2017-02-16T07:08:08.257Z,6.25
2017-02-16T07:08:48.797Z,6.34
2017-02-16T07:09:29.347Z,6.27
2017-02-16T07:10:09.887Z,6.34
2017-02-16T07:10:50.414Z,6.36
2017-02-16T07:11:30.947Z,6.27
2017-02-16T07:12:11.503Z,6.34
2017-02-16T07:12:52.019Z,6.34
2017-02-16T07:13:32.552Z,6.34
2017-02-16T07:14:13.134Z,6.31
2017-02-16T07:14:53.680Z,6.4
2017-02-16T07:15:34.222Z,6.34
2017-02-16T07:16:14.758Z,6.36
2017-02-16T07:16:55.288Z,6.46
2017-02-16T07:17:35.829Z,6.4
2017-02-16T07:18:16.359Z,6.37
2017-02-16T07:18:56.890Z,6.37
2017-02-16T07:19:37.426Z,6.4
2017-02-16T07:20:17.961Z,6.4
2017-02-16T07:20:58.497Z,6.43
2017-02-16T07:21:39.040Z,6.37
2017-02-16T07:22:19.571Z,6.4
2017-02-16T07:23:00.108Z,6.38
2017-02-16T07:23:40.643Z,6.44
2017-02-16T07:24:21.183Z,6.44
2017-02-16T07:25:01.718Z,6.43
2017-02-16T07:25:42.252Z,6.52
2017-02-16T07:26:22.780Z,6.51
2017-02-16T07:27:03.316Z,6.46
2017-02-16T07:27:43.855Z,6.61
2017-02-16T07:28:24.389Z,6.61
2017-02-16T07:29:04.936Z,6.56
2017-02-16T07:29:45.498Z,6.55
2017-02-16T07:30:26.037Z,6.62
2017-02-16T07:31:06.570Z,6.61
2017-02-16T07:31:47.127Z,6.66
2017-02-16T07:32:27.694Z,6.62
2017-02-16T07:33:08.231Z,6.61
2017-02-16T07:33:48.767Z,6.55
2017-02-16T07:34:29.308Z,6.52
2017-02-16T07:35:09.842Z,6.64
2017-02-16T07:35:50.386Z,6.55
2017-02-16T07:36:30.923Z,6.56
2017-02-16T07:37:11.456Z,6.59
2017-02-16T07:37:51.993Z,6.55
2017-02-16T07:38:32.514Z,6.59
2017-02-16T07:39:13.039Z,6.58
2017-02-16T07:39:53.584Z,6.58
2017-02-16T07:40:34.118Z,6.62
2017-02-16T07:41:14.657Z,6.61
2017-02-16T07:41:55.193Z,6.58
2017-02-16T07:42:35.724Z,6.66
2017-02-16T07:43:16.259Z,6.64
2017-02-16T07:43:56.789Z,6.59
2017-02-16T07:44:37.324Z,6.58
2017-02-16T07:45:17.860Z,6.55
2017-02-16T07:45:58.403Z,6.61
2017-02-16T07:46:38.946Z,6.48
2017-02-16T07:47:19.467Z,6.43
2017-02-16T07:47:59.992Z,6.38
2017-02-16T07:48:40.519Z,6.43
2017-02-16T07:49:21.053Z,6.36
2017-02-16T07:50:01.591Z,6.33
2017-02-16T07:50:42.127Z,6.33
2017-02-16T07:51:22.666Z,6.33
2017-02-16T07:52:03.199Z,6.37
2017-02-16T07:52:43.740Z,6.22
2017-02-16T07:53:24.274Z,6.27
2017-02-16T07:54:04.801Z,6.28
2017-02-16T07:54:45.339Z,6.27
2017-02-16T07:55:25.869Z,6.27
2017-02-16T07:56:06.396Z,6.28
2017-02-16T07:56:46.934Z,6.27
2017-02-16T07:57:27.467Z,6.21
2017-02-16T07:58:08.008Z,6.28
2017-02-16T07:58:48.550Z,6.21
2017-02-16T07:59:29.068Z,6.27
2017-02-16T08:00:09.601Z,6.22
2017-02-16T08:00:50.131Z,6.22
2017-02-16T08:01:30.657Z,6.17
2017-02-16T08:02:11.194Z,6.21
2017-02-16T08:02:51.729Z,6.21
2017-02-16T08:03:32.258Z,6.25
2017-02-16T08:04:12.795Z,6.19
2017-02-16T08:04:53.330Z,6.27
2017-02-16T08:05:33.861Z,6.21
2017-02-16T08:06:14.393Z,6.27
2017-02-16T08:06:54.926Z,6.21
2017-02-16T08:07:35.455Z,6.19
2017-02-16T08:08:16.064Z,6.21
2017-02-16T08:08:56.598Z,6.25
2017-02-16T08:09:37.136Z,6.21
2017-02-16T08:10:17.667Z,6.18
2017-02-16T08:10:58.194Z,6.21
2017-02-16T08:11:38.724Z,6.25
2017-02-16T08:12:19.250Z,6.21
2017-02-16T08:12:59.780Z,6.21
2017-02-16T08:13:40.312Z,6.14
2017-02-16T08:14:20.848Z,6.17
2017-02-16T08:15:01.389Z,6.22
2017-02-16T08:15:41.919Z,6.27
2017-02-16T08:16:22.453Z,6.15
2017-02-16T08:17:02.986Z,6.19
2017-02-16T08:17:43.515Z,6.18
2017-02-16T08:18:24.042Z,6.21
2017-02-16T08:19:04.575Z,6.18
2017-02-16T08:19:45.107Z,6.09
2017-02-16T08:20:25.640Z,6.17
2017-02-16T08:21:06.168Z,6.21
2017-02-16T08:21:46.704Z,6.21
2017-02-16T08:22:27.235Z,6.18
2017-02-16T08:23:07.774Z,6.25
2017-02-16T08:23:48.306Z,6.19
2017-02-16T08:24:28.837Z,6.22
2017-02-16T08:25:09.379Z,6.22
2017-02-16T08:25:49.910Z,6.25
2017-02-16T08:26:30.440Z,6.19
2017-02-16T08:27:10.976Z,6.17
2017-02-16T08:27:51.509Z,6.19
2017-02-16T08:28:32.038Z,6.11
2017-02-16T08:29:12.572Z,6.06
2017-02-16T08:29:53.109Z,5.97
2017-02-16T08:30:33.642Z,6.04
2017-02-16T08:31:14.177Z,6
2017-02-16T08:31:54.710Z,6
2017-02-16T08:32:35.247Z,5.97
2017-02-16T08:33:15.778Z,5.86
2017-02-16T08:33:56.311Z,5.89
2017-02-16T08:34:36.844Z,5.86
2017-02-16T08:35:17.382Z,5.86
2017-02-16T08:35:57.913Z,5.76
2017-02-16T08:36:38.443Z,5.81
2017-02-16T08:37:18.973Z,5.72
2017-02-16T08:37:59.505Z,5.74
2017-02-16T08:38:40.037Z,5.74
2017-02-16T08:39:20.569Z,5.78
2017-02-16T08:40:01.105Z,5.68
2017-02-16T08:40:41.642Z,5.71
2017-02-16T08:41:22.179Z,5.75
2017-02-16T08:42:02.761Z,5.71
2017-02-16T08:42:43.242Z,5.78
2017-02-16T08:43:23.781Z,5.72
2017-02-16T08:44:04.313Z,5.72
2017-02-16T08:44:44.848Z,5.78
2017-02-16T08:45:25.382Z,5.72
2017-02-16T08:46:05.920Z,5.75
2017-02-16T08:46:46.450Z,5.75
2017-02-16T08:47:26.991Z,5.76
2017-02-16T08:48:07.524Z,5.83
2017-02-16T08:48:48.058Z,5.81
2017-02-16T08:49:28.593Z,5.79
2017-02-16T08:50:09.125Z,5.81
2017-02-16T08:50:49.655Z,5.83
2017-02-16T08:51:30.194Z,5.86
2017-02-16T08:52:10.730Z,5.83
2017-02-16T08:52:51.265Z,5.9
2017-02-16T08:53:31.802Z,5.78
2017-02-16T08:54:12.338Z,5.79
2017-02-16T08:54:52.876Z,5.78
2017-02-16T08:55:33.410Z,5.89
2017-02-16T08:56:13.949Z,5.78
2017-02-16T08:56:54.478Z,5.79
2017-02-16T08:57:35.018Z,5.81
2017-02-16T08:58:15.541Z,5.82
2017-02-16T08:58:56.080Z,5.82
2017-02-16T08:59:36.622Z,5.82
2017-02-16T09:00:17.149Z,5.81
2017-02-16T09:00:57.677Z,5.86
2017-02-16T09:01:38.213Z,5.83
2017-02-16T09:02:18.748Z,5.86
2017-02-16T09:02:59.285Z,5.83
2017-02-16T09:03:39.815Z,5.83
2017-02-16T09:04:20.350Z,5.85
2017-02-16T09:05:00.894Z,5.76
2017-02-16T09:05:41.410Z,5.83
2017-02-16T09:06:21.940Z,5.86
2017-02-16T09:07:02.476Z,5.81
2017-02-16T09:07:43.015Z,5.85
2017-02-16T09:08:23.556Z,5.85
2017-02-16T09:09:04.090Z,5.85
2017-02-16T09:09:44.618Z,5.9
2017-02-16T09:10:25.145Z,5.83
2017-02-16T09:11:05.681Z,6
2017-02-16T09:11:46.213Z,5.93
2017-02-16T09:12:26.748Z,5.96
2017-02-16T09:13:07.286Z,6.06
2017-02-16T09:13:47.818Z,6
2017-02-16T09:14:28.352Z,5.94
2017-02-16T09:15:08.894Z,6.06
2017-02-16T09:15:49.424Z,6.03
2017-02-16T09:16:30.057Z,5.97
2017-02-16T09:17:10.589Z,6.11
2017-02-16T09:17:51.125Z,6.09
2017-02-16T09:18:31.654Z,6.14
2017-02-16T09:19:12.187Z,6.12
2017-02-16T09:19:52.720Z,6.19
2017-02-16T09:20:33.256Z,6.18
2017-02-16T09:21:13.792Z,6.21
2017-02-16T09:21:54.330Z,6.19
2017-02-16T09:22:34.865Z,6.21
2017-02-16T09:23:15.398Z,6.22
2017-02-16T09:23:55.932Z,6.25
2017-02-16T09:24:36.466Z,6.18
2017-02-16T09:25:17.000Z,6.19
2017-02-16T09:25:57.535Z,6.17
2017-02-16T09:26:38.063Z,6.33
2017-02-16T09:27:18.599Z,6.31